Union Mills, IN (46382)

8:04 AM CST on November 24, 2014 (GMT -0600)
La Porte, IN | Change Station
CLOSE
Current Station
Personal Weather Station
Location: La Porte, IN
Elevation: 820 ft
Nearby Weather Stations
Active Advisory: Wind Advisory Active Notice: Record Report

Elev 820 ft 41.59 °N, 86.73 °W | Updated 17 seconds ago

Rain
Rain
49.9 °F
Feels Like 50 °F
N
0.0
Wind Variable Wind from SW
Gusts 2.0 mph

Today
High -- | Low -- °F
--% Chance of Precip.
Yesterday
High -- | Low -- °F
Precip. -- in
6:46 AM 4:21 PM
Waxing Crescent, 5% visible
Pressure 29.07 in
Visibility 2.0 miles
Clouds Mostly Cloudy 700 ft
Mostly Cloudy 1400 ft
Overcast 1900 ft
Windchill 50 °F
Dew Point 50 °F
Humidity 99%
Rainfall 0.00 in
Snow Depth Not available.
UV 0 out of 12
Pollen .10 out of 12
Air Quality Not available.
Flu Activity Not available.
METAR KOXI 241355Z AUTO 26005KT 2SM BKN007 BKN014 OVC019 10/10 A2907 RMK AO1 T01020095

More Conditions Fewer Conditions

Pressure 29.07 in
Visibility 2.0 miles
Clouds Mostly Cloudy 700 ft
Mostly Cloudy 1400 ft
Overcast 1900 ft
Windchill 50 °F
Dew Point 50 °F
Humidity 99%
Rainfall 0.00 in
Snow Depth Not available.
UV 0 out of 12
Pollen .10 out of 12
Air Quality Not available.
Flu Activity Not available.
METAR KOXI 241355Z AUTO 26005KT 2SM BKN007 BKN014 OVC019 10/10 A2907 RMK AO1 T01020095

More Conditions Fewer Conditions

10-Day Weather Forecast

Almanac

Astronomy

Nov. 24, 2014 Rise Set
Actual Time
Civil Twilight
Nautical Twilight
Astronomical Twilight
Moon
Length of Visible Light
Length of Day
Tomorrow will be .
, % of the Moon is Illuminated

Today's Extremes

State Highs State Lows

Community

WunderPhotos

Upload Photos

1,773,332 photos uploaded!

WunderBlogs® & News

Nearby

Air Quality

  Air Quality AQ Index Pollutant
Not available.

Snow Depth

Station Depth Elevation

Earthquake Activity

City Distance Mag. Time & Date
Minimum magnitude displayed is 2.5.

Coastal Water Temperatures

Place Temperature

Nearby Weather Stations